sensor_id;sensor_type;location;lat;lon;timestamp;pressure;altitude;pressure_sealevel;temperature;humidity
66857;BME280;53766;50.280;19.160;2023-05-29T00:01:05;98656.88;;;19.30;41.47
66857;BME280;53766;50.280;19.160;2023-05-29T00:03:35;98660.59;;;19.29;41.60
66857;BME280;53766;50.280;19.160;2023-05-29T00:06:03;98655.25;;;19.29;41.57
66857;BME280;53766;50.280;19.160;2023-05-29T00:08:32;98652.56;;;19.29;41.65
66857;BME280;53766;50.280;19.160;2023-05-29T00:11:00;98653.59;;;19.28;41.70
66857;BME280;53766;50.280;19.160;2023-05-29T00:13:27;98654.63;;;19.27;41.51
66857;BME280;53766;50.280;19.160;2023-05-29T00:15:55;98651.09;;;19.27;41.65
66857;BME280;53766;50.280;19.160;2023-05-29T00:18:23;98654.63;;;19.27;41.81
66857;BME280;53766;50.280;19.160;2023-05-29T00:20:51;98646.63;;;19.27;41.59
66857;BME280;53766;50.280;19.160;2023-05-29T00:23:21;98644.94;;;19.26;41.90
66857;BME280;53766;50.280;19.160;2023-05-29T00:25:49;98647.63;;;19.26;41.69
66857;BME280;53766;50.280;19.160;2023-05-29T00:28:16;98649.47;;;19.26;41.65
66857;BME280;53766;50.280;19.160;2023-05-29T00:30:44;98648.66;;;19.25;41.66
66857;BME280;53766;50.280;19.160;2023-05-29T00:33:11;98641.66;;;19.24;41.72
66857;BME280;53766;50.280;19.160;2023-05-29T00:35:39;98648.66;;;19.25;41.88
66857;BME280;53766;50.280;19.160;2023-05-29T00:38:06;98637.38;;;19.23;41.85
66857;BME280;53766;50.280;19.160;2023-05-29T00:40:34;98640.03;;;19.23;41.87
66857;BME280;53766;50.280;19.160;2023-05-29T00:43:01;98638.38;;;19.22;42.00
66857;BME280;53766;50.280;19.160;2023-05-29T00:45:30;98643.72;;;19.22;41.84
66857;BME280;53766;50.280;19.160;2023-05-29T00:47:58;98639.22;;;19.23;41.91
66857;BME280;53766;50.280;19.160;2023-05-29T00:50:25;98637.56;;;19.22;42.00
66857;BME280;53766;50.280;19.160;2023-05-29T00:52:54;98642.09;;;19.21;42.10
66857;BME280;53766;50.280;19.160;2023-05-29T00:55:22;98639.41;;;19.21;41.91
66857;BME280;53766;50.280;19.160;2023-05-29T00:57:49;98636.75;;;19.21;41.88
66857;BME280;53766;50.280;19.160;2023-05-29T01:00:17;98637.75;;;19.20;41.88
66857;BME280;53766;50.280;19.160;2023-05-29T01:02:46;98634.28;;;19.20;42.07
66857;BME280;53766;50.280;19.160;2023-05-29T01:05:15;98638.78;;;19.19;42.08
66857;BME280;53766;50.280;19.160;2023-05-29T01:07:42;98636.13;;;19.19;42.07
66857;BME280;53766;50.280;19.160;2023-05-29T01:10:11;98633.47;;;19.19;42.00
66857;BME280;53766;50.280;19.160;2023-05-29T01:12:46;98630.97;;;19.18;42.01
66857;BME280;53766;50.280;19.160;2023-05-29T01:15:41;98632.84;;;19.17;42.03
66857;BME280;53766;50.280;19.160;2023-05-29T01:21:05;98630.38;;;19.16;42.17
66857;BME280;53766;50.280;19.160;2023-05-29T01:29:24;98632.22;;;19.15;42.15
66857;BME280;53766;50.280;19.160;2023-05-29T01:31:54;98625.25;;;19.14;42.18
66857;BME280;53766;50.280;19.160;2023-05-29T01:34:21;98626.88;;;19.15;42.19
66857;BME280;53766;50.280;19.160;2023-05-29T01:36:49;98626.88;;;19.15;42.23
66857;BME280;53766;50.280;19.160;2023-05-29T01:39:17;98627.06;;;19.14;42.32
66857;BME280;53766;50.280;19.160;2023-05-29T01:41:46;98624.41;;;19.14;42.15
66857;BME280;53766;50.280;19.160;2023-05-29T01:44:15;98624.63;;;19.12;42.20
66857;BME280;53766;50.280;19.160;2023-05-29T01:46:44;98629.13;;;19.11;42.26
66857;BME280;53766;50.280;19.160;2023-05-29T01:49:12;98622.78;;;19.13;42.31
66857;BME280;53766;50.280;19.160;2023-05-29T01:51:41;98621.97;;;19.12;42.11
66857;BME280;53766;50.280;19.160;2023-05-29T01:54:08;98622.97;;;19.11;42.17
66857;BME280;53766;50.280;19.160;2023-05-29T01:56:36;98612.28;;;19.11;42.20
66857;BME280;53766;50.280;19.160;2023-05-29T01:59:04;98618.66;;;19.10;42.15
66857;BME280;53766;50.280;19.160;2023-05-29T02:01:33;98620.50;;;19.09;42.29
66857;BME280;53766;50.280;19.160;2023-05-29T02:04:00;98612.72;;;19.08;42.37
66857;BME280;53766;50.280;19.160;2023-05-29T02:06:28;98614.34;;;19.09;42.08
66857;BME280;53766;50.280;19.160;2023-05-29T02:08:55;98615.38;;;19.08;42.25
66857;BME280;53766;50.280;19.160;2023-05-29T02:11:23;98616.19;;;19.08;42.29
66857;BME280;53766;50.280;19.160;2023-05-29T02:13:51;98611.88;;;19.07;42.20
66857;BME280;53766;50.280;19.160;2023-05-29T02:16:19;98617.22;;;19.07;42.20
66857;BME280;53766;50.280;19.160;2023-05-29T02:18:47;98617.44;;;19.06;42.21
66857;BME280;53766;50.280;19.160;2023-05-29T02:21:15;98609.44;;;19.06;42.35
66857;BME280;53766;50.280;19.160;2023-05-29T02:23:43;98610.44;;;19.05;42.28
66857;BME280;53766;50.280;19.160;2023-05-29T02:26:12;98609.63;;;19.04;42.29
66857;BME280;53766;50.280;19.160;2023-05-29T02:28:40;98613.09;;;19.05;42.27
66857;BME280;53766;50.280;19.160;2023-05-29T02:31:08;98615.78;;;19.05;42.28
66857;BME280;53766;50.280;19.160;2023-05-29T02:33:35;98604.47;;;19.03;42.21
66857;BME280;53766;50.280;19.160;2023-05-29T02:36:03;98596.47;;;19.03;42.40
66857;BME280;53766;50.280;19.160;2023-05-29T02:38:30;98607.16;;;19.03;42.25
66857;BME280;53766;50.280;19.160;2023-05-29T02:40:58;98612.47;;;19.03;42.16
66857;BME280;53766;50.280;19.160;2023-05-29T02:43:25;98609.19;;;19.01;42.29
66857;BME280;53766;50.280;19.160;2023-05-29T02:45:53;98610.03;;;19.01;42.48
66857;BME280;53766;50.280;19.160;2023-05-29T02:48:20;98597.69;;;19.00;42.36
66857;BME280;53766;50.280;19.160;2023-05-29T02:50:48;98601.19;;;19.01;42.16
66857;BME280;53766;50.280;19.160;2023-05-29T02:53:15;98597.69;;;19.00;42.34
66857;BME280;53766;50.280;19.160;2023-05-29T02:55:43;98599.56;;;19.00;42.41
66857;BME280;53766;50.280;19.160;2023-05-29T02:58:11;98591.53;;;19.00;42.25
66857;BME280;53766;50.280;19.160;2023-05-29T03:00:39;98590.72;;;18.99;42.10
66857;BME280;53766;50.280;19.160;2023-05-29T03:03:08;98588.06;;;18.99;42.30
66857;BME280;53766;50.280;19.160;2023-05-29T03:05:36;98586.22;;;19.00;42.32
66857;BME280;53766;50.280;19.160;2023-05-29T03:08:03;98590.72;;;18.99;42.24
66857;BME280;53766;50.280;19.160;2023-05-29T03:10:31;98584.56;;;18.99;42.31
66857;BME280;53766;50.280;19.160;2023-05-29T03:12:58;98586.63;;;18.97;42.30
66857;BME280;53766;50.280;19.160;2023-05-29T03:15:26;98590.94;;;18.98;42.35
66857;BME280;53766;50.280;19.160;2023-05-29T03:17:53;98586.63;;;18.97;42.22
66857;BME280;53766;50.280;19.160;2023-05-29T03:20:21;98596.25;;;18.98;42.24
66857;BME280;53766;50.280;19.160;2023-05-29T03:22:48;98593.78;;;18.96;42.16
66857;BME280;53766;50.280;19.160;2023-05-29T03:25:16;98598.31;;;18.96;42.33
66857;BME280;53766;50.280;19.160;2023-05-29T03:27:43;98601.81;;;18.96;42.22
66857;BME280;53766;50.280;19.160;2023-05-29T03:30:11;98602.66;;;18.97;42.37
66857;BME280;53766;50.280;19.160;2023-05-29T03:32:39;98595.66;;;18.96;42.20
66857;BME280;53766;50.280;19.160;2023-05-29T03:35:07;98595.66;;;18.96;42.29
66857;BME280;53766;50.280;19.160;2023-05-29T03:37:34;98601.81;;;18.96;42.29
66857;BME280;53766;50.280;19.160;2023-05-29T03:40:02;98590.31;;;18.96;42.19
66857;BME280;53766;50.280;19.160;2023-05-29T03:42:31;98592.97;;;18.96;42.45
66857;BME280;53766;50.280;19.160;2023-05-29T03:44:58;98594.03;;;18.95;42.27
66857;BME280;53766;50.280;19.160;2023-05-29T03:47:26;98595.66;;;18.96;42.22
66857;BME280;53766;50.280;19.160;2023-05-29T03:49:54;98600.16;;;18.95;42.43
66857;BME280;53766;50.280;19.160;2023-05-29T03:52:22;98603.66;;;18.96;42.41
66857;BME280;53766;50.280;19.160;2023-05-29T03:54:49;98611.66;;;18.96;42.46
66857;BME280;53766;50.280;19.160;2023-05-29T03:57:17;98610.03;;;18.95;42.50
66857;BME280;53766;50.280;19.160;2023-05-29T03:59:44;98604.69;;;18.95;42.41
66857;BME280;53766;50.280;19.160;2023-05-29T04:02:12;98606.31;;;18.96;42.47
66857;BME280;53766;50.280;19.160;2023-05-29T04:04:41;98607.97;;;18.97;42.35
66857;BME280;53766;50.280;19.160;2023-05-29T04:07:08;98599.97;;;18.97;42.45
66857;BME280;53766;50.280;19.160;2023-05-29T04:09:36;98601.81;;;18.96;42.30
66857;BME280;53766;50.280;19.160;2023-05-29T04:12:03;98609.00;;;18.96;42.41
66857;BME280;53766;50.280;19.160;2023-05-29T04:14:33;98610.66;;;18.97;42.33
66857;BME280;53766;50.280;19.160;2023-05-29T04:17:00;98598.94;;;18.98;42.38
66857;BME280;53766;50.280;19.160;2023-05-29T04:19:28;98602.66;;;18.97;42.27
66857;BME280;53766;50.280;19.160;2023-05-29T04:21:55;98598.94;;;18.98;42.23
66857;BME280;53766;50.280;19.160;2023-05-29T04:24:23;98609.63;;;18.98;42.35
66857;BME280;53766;50.280;19.160;2023-05-29T04:26:51;98611.25;;;18.99;42.26
66857;BME280;53766;50.280;19.160;2023-05-29T04:29:19;98611.25;;;18.99;42.29
66857;BME280;53766;50.280;19.160;2023-05-29T04:31:47;98615.56;;;19.00;42.40
66857;BME280;53766;50.280;19.160;2023-05-29T04:34:14;98616.19;;;19.02;42.48
66857;BME280;53766;50.280;19.160;2023-05-29T04:36:44;98616.19;;;19.02;42.37
66857;BME280;53766;50.280;19.160;2023-05-29T04:39:13;98616.19;;;19.02;42.37
66857;BME280;53766;50.280;19.160;2023-05-29T04:41:41;98621.53;;;19.02;42.51
66857;BME280;53766;50.280;19.160;2023-05-29T04:44:08;98619.47;;;19.04;42.65
66857;BME280;53766;50.280;19.160;2023-05-29T04:46:38;98625.63;;;19.04;42.63
66857;BME280;53766;50.280;19.160;2023-05-29T04:49:06;98621.09;;;19.05;42.55
66857;BME280;53766;50.280;19.160;2023-05-29T04:51:33;98622.78;;;19.06;42.54
66857;BME280;53766;50.280;19.160;2023-05-29T04:54:01;98628.94;;;19.06;42.49
66857;BME280;53766;50.280;19.160;2023-05-29T04:56:28;98623.38;;;19.08;42.52
66857;BME280;53766;50.280;19.160;2023-05-29T04:58:56;98632.22;;;19.08;42.52
66857;BME280;53766;50.280;19.160;2023-05-29T05:01:25;98640.03;;;19.10;42.58
66857;BME280;53766;50.280;19.160;2023-05-29T05:03:53;98635.50;;;19.10;42.56
66857;BME280;53766;50.280;19.160;2023-05-29T05:06:23;98637.13;;;19.11;42.52
66857;BME280;53766;50.280;19.160;2023-05-29T05:08:53;98640.66;;;19.12;42.64
66857;BME280;53766;50.280;19.160;2023-05-29T05:11:23;98637.56;;;19.15;42.53
66857;BME280;53766;50.280;19.160;2023-05-29T05:13:51;98633.03;;;19.16;42.49
66857;BME280;53766;50.280;19.160;2023-05-29T05:16:18;98632.63;;;19.19;42.50
66857;BME280;53766;50.280;19.160;2023-05-29T05:18:46;98636.75;;;19.21;42.61
66857;BME280;53766;50.280;19.160;2023-05-29T05:21:13;98638.81;;;19.26;42.53
66857;BME280;53766;50.280;19.160;2023-05-29T05:23:41;98628.53;;;19.29;42.32
66857;BME280;53766;50.280;19.160;2023-05-29T05:26:24;98632.66;;;19.32;42.24
66857;BME280;53766;50.280;19.160;2023-05-29T05:28:54;98629.75;;;19.33;42.28
66857;BME280;53766;50.280;19.160;2023-05-29T05:31:21;98629.34;;;19.37;42.05
66857;BME280;53766;50.280;19.160;2023-05-29T05:33:49;98635.50;;;19.37;42.16
66857;BME280;53766;50.280;19.160;2023-05-29T05:36:17;98635.31;;;19.39;42.27
66857;BME280;53766;50.280;19.160;2023-05-29T05:38:44;98637.19;;;19.38;42.37
66857;BME280;53766;50.280;19.160;2023-05-29T05:41:12;98642.72;;;19.37;42.09
66857;BME280;53766;50.280;19.160;2023-05-29T05:43:40;98638.38;;;19.36;42.31
66857;BME280;53766;50.280;19.160;2023-05-29T05:46:07;98639.63;;;19.33;42.51
66857;BME280;53766;50.280;19.160;2023-05-29T05:48:35;98647.84;;;19.31;42.62
66857;BME280;53766;50.280;19.160;2023-05-29T05:51:02;98639.22;;;19.29;42.64
66857;BME280;53766;50.280;19.160;2023-05-29T05:53:30;98645.56;;;19.28;42.79
66857;BME280;53766;50.280;19.160;2023-05-29T05:55:57;98644.75;;;19.28;42.72
66857;BME280;53766;50.280;19.160;2023-05-29T05:58:25;98644.94;;;19.26;42.52
66857;BME280;53766;50.280;19.160;2023-05-29T06:00:52;98638.00;;;19.25;42.76
66857;BME280;53766;50.280;19.160;2023-05-29T06:03:20;98640.66;;;19.25;42.76
66857;BME280;53766;50.280;19.160;2023-05-29T06:05:49;98644.13;;;19.26;42.81
66857;BME280;53766;50.280;19.160;2023-05-29T06:08:18;98645.16;;;19.25;42.75
66857;BME280;53766;50.280;19.160;2023-05-29T06:10:45;98647.00;;;19.24;42.95
66857;BME280;53766;50.280;19.160;2023-05-29T06:13:13;98652.34;;;19.24;42.88
66857;BME280;53766;50.280;19.160;2023-05-29T06:15:40;98653.38;;;19.23;42.82
66857;BME280;53766;50.280;19.160;2023-05-29T06:18:08;98656.06;;;19.23;42.89
66857;BME280;53766;50.280;19.160;2023-05-29T06:20:35;98654.41;;;19.22;42.90
66857;BME280;53766;50.280;19.160;2023-05-29T06:23:04;98656.06;;;19.23;42.97
66857;BME280;53766;50.280;19.160;2023-05-29T06:25:31;98656.88;;;19.24;43.03
66857;BME280;53766;50.280;19.160;2023-05-29T06:28:02;98656.88;;;19.24;43.01
66857;BME280;53766;50.280;19.160;2023-05-29T06:30:30;98667.56;;;19.24;43.08
66857;BME280;53766;50.280;19.160;2023-05-29T06:32:58;98670.22;;;19.24;43.07
66857;BME280;53766;50.280;19.160;2023-05-29T06:35:25;98671.03;;;19.24;43.05
66857;BME280;53766;50.280;19.160;2023-05-29T06:37:53;98669.19;;;19.25;42.96
66857;BME280;53766;50.280;19.160;2023-05-29T06:40:20;98673.72;;;19.24;42.92
66857;BME280;53766;50.280;19.160;2023-05-29T06:42:48;98664.69;;;19.25;42.90
66857;BME280;53766;50.280;19.160;2023-05-29T06:45:16;98670.84;;;19.26;43.04
66857;BME280;53766;50.280;19.160;2023-05-29T06:47:43;98675.38;;;19.25;42.95
66857;BME280;53766;50.280;19.160;2023-05-29T06:50:11;98677.00;;;19.26;43.08
66857;BME280;53766;50.280;19.160;2023-05-29T06:52:39;98673.72;;;19.24;43.24
66857;BME280;53766;50.280;19.160;2023-05-29T06:55:07;98682.34;;;19.26;43.13
66857;BME280;53766;50.280;19.160;2023-05-29T06:57:35;98679.66;;;19.26;43.00
66857;BME280;53766;50.280;19.160;2023-05-29T07:00:04;98679.66;;;19.26;43.02
66857;BME280;53766;50.280;19.160;2023-05-29T07:02:33;98686.66;;;19.27;42.95
66857;BME280;53766;50.280;19.160;2023-05-29T07:05:00;98688.31;;;19.28;43.13
66857;BME280;53766;50.280;19.160;2023-05-29T07:07:28;98689.34;;;19.27;42.93
66857;BME280;53766;50.280;19.160;2023-05-29T07:09:55;98682.97;;;19.28;42.96
66857;BME280;53766;50.280;19.160;2023-05-29T07:12:23;98682.97;;;19.28;42.99
66857;BME280;53766;50.280;19.160;2023-05-29T07:14:50;98685.44;;;19.30;43.06
66857;BME280;53766;50.280;19.160;2023-05-29T07:17:18;98688.09;;;19.30;43.09
66857;BME280;53766;50.280;19.160;2023-05-29T07:19:45;98696.94;;;19.30;43.20
66857;BME280;53766;50.280;19.160;2023-05-29T07:22:14;98699.59;;;19.30;42.93
66857;BME280;53766;50.280;19.160;2023-05-29T07:24:41;98690.59;;;19.31;43.13
66857;BME280;53766;50.280;19.160;2023-05-29T07:27:08;98691.41;;;19.32;43.10
66857;BME280;53766;50.280;19.160;2023-05-29T07:29:36;98694.88;;;19.32;43.18
66857;BME280;53766;50.280;19.160;2023-05-29T07:32:04;98691.16;;;19.33;43.07
66857;BME280;53766;50.280;19.160;2023-05-29T07:34:31;98684.81;;;19.35;43.15
66857;BME280;53766;50.280;19.160;2023-05-29T07:37:03;98686.44;;;19.36;43.13
66857;BME280;53766;50.280;19.160;2023-05-29T07:39:31;98694.47;;;19.36;43.06
66857;BME280;53766;50.280;19.160;2023-05-29T07:42:00;98690.78;;;19.37;43.06
66857;BME280;53766;50.280;19.160;2023-05-29T07:44:30;98693.25;;;19.38;43.22
66857;BME280;53766;50.280;19.160;2023-05-29T07:46:58;98698.38;;;19.40;43.22
66857;BME280;53766;50.280;19.160;2023-05-29T07:49:25;98697.38;;;19.41;43.25
66857;BME280;53766;50.280;19.160;2023-05-29T07:51:53;98706.19;;;19.41;43.04
66857;BME280;53766;50.280;19.160;2023-05-29T07:54:21;98699.00;;;19.42;43.22
66857;BME280;53766;50.280;19.160;2023-05-29T07:56:48;98704.16;;;19.43;43.21
66857;BME280;53766;50.280;19.160;2023-05-29T07:59:17;98704.97;;;19.44;43.04
66857;BME280;53766;50.280;19.160;2023-05-29T08:01:45;98699.41;;;19.45;43.08
66857;BME280;53766;50.280;19.160;2023-05-29T08:04:14;98703.72;;;19.46;43.21
66857;BME280;53766;50.280;19.160;2023-05-29T08:06:42;98698.38;;;19.46;43.14
66857;BME280;53766;50.280;19.160;2023-05-29T08:09:11;98703.94;;;19.45;43.11
66857;BME280;53766;50.280;19.160;2023-05-29T08:11:39;98709.91;;;19.47;42.97
66857;BME280;53766;50.280;19.160;2023-05-29T08:14:06;98704.56;;;19.47;43.09
66857;BME280;53766;50.280;19.160;2023-05-29T08:16:34;98695.50;;;19.48;43.01
66857;BME280;53766;50.280;19.160;2023-05-29T08:19:02;98704.34;;;19.48;43.17
66857;BME280;53766;50.280;19.160;2023-05-29T08:21:30;98703.34;;;19.49;43.10
66857;BME280;53766;50.280;19.160;2023-05-29T08:23:59;98698.81;;;19.50;43.03
66857;BME280;53766;50.280;19.160;2023-05-29T08:26:27;98696.13;;;19.50;43.00
66857;BME280;53766;50.280;19.160;2023-05-29T08:28:54;98700.44;;;19.51;42.89
66857;BME280;53766;50.280;19.160;2023-05-29T08:31:22;98697.75;;;19.51;43.18
66857;BME280;53766;50.280;19.160;2023-05-29T08:33:53;98702.09;;;19.52;42.99
66857;BME280;53766;50.280;19.160;2023-05-29T08:36:21;98689.56;;;19.52;42.98
66857;BME280;53766;50.280;19.160;2023-05-29T08:38:49;98694.69;;;19.54;43.04
66857;BME280;53766;50.280;19.160;2023-05-29T08:41:21;98699.00;;;19.55;43.06
66857;BME280;53766;50.280;19.160;2023-05-29T08:43:52;98698.00;;;19.56;42.98
66857;BME280;53766;50.280;19.160;2023-05-29T08:46:20;98690.59;;;19.58;42.96
66857;BME280;53766;50.280;19.160;2023-05-29T08:48:48;98695.94;;;19.58;43.01
66857;BME280;53766;50.280;19.160;2023-05-29T08:51:20;98699.22;;;19.60;42.96
66857;BME280;53766;50.280;19.160;2023-05-29T08:53:51;98694.50;;;19.62;42.92
66857;BME280;53766;50.280;19.160;2023-05-29T08:56:19;98693.47;;;19.63;42.85
66857;BME280;53766;50.280;19.160;2023-05-29T08:59:01;98692.44;;;19.64;42.95
66857;BME280;53766;50.280;19.160;2023-05-29T09:01:34;98697.56;;;19.66;42.92
66857;BME280;53766;50.280;19.160;2023-05-29T09:04:02;98690.41;;;19.66;42.84
66857;BME280;53766;50.280;19.160;2023-05-29T09:06:30;98689.34;;;19.67;42.90
66857;BME280;53766;50.280;19.160;2023-05-29T09:08:58;98684.81;;;19.68;42.89
66857;BME280;53766;50.280;19.160;2023-05-29T09:11:25;98675.78;;;19.69;42.94
66857;BME280;53766;50.280;19.160;2023-05-29T09:13:53;98691.63;;;19.70;42.86
66857;BME280;53766;50.280;19.160;2023-05-29T09:16:20;98695.97;;;19.71;42.91
66857;BME280;53766;50.280;19.160;2023-05-29T09:18:49;98693.91;;;19.73;42.93
66857;BME280;53766;50.280;19.160;2023-05-29T09:21:27;98688.56;;;19.73;42.72
66857;BME280;53766;50.280;19.160;2023-05-29T09:24:02;98690.19;;;19.75;42.99
66857;BME280;53766;50.280;19.160;2023-05-29T09:26:30;98697.19;;;19.76;42.83
66857;BME280;53766;50.280;19.160;2023-05-29T09:28:58;98692.47;;;19.78;42.75
66857;BME280;53766;50.280;19.160;2023-05-29T09:31:26;98690.63;;;19.78;42.88
66857;BME280;53766;50.280;19.160;2023-05-29T09:33:53;98689.56;;;19.79;42.74
66857;BME280;53766;50.280;19.160;2023-05-29T09:36:22;98685.88;;;19.80;42.84
66857;BME280;53766;50.280;19.160;2023-05-29T09:38:49;98697.19;;;19.82;42.80
66857;BME280;53766;50.280;19.160;2023-05-29T09:41:25;98686.50;;;19.82;42.74
66857;BME280;53766;50.280;19.160;2023-05-29T09:43:53;98690.00;;;19.83;42.71
66857;BME280;53766;50.280;19.160;2023-05-29T09:46:22;98683.63;;;19.84;42.57
66857;BME280;53766;50.280;19.160;2023-05-29T09:48:50;98686.88;;;19.86;42.78
66857;BME280;53766;50.280;19.160;2023-05-29T09:51:23;98685.06;;;19.86;42.59
66857;BME280;53766;50.280;19.160;2023-05-29T09:53:53;98677.84;;;19.87;42.42
66857;BME280;53766;50.280;19.160;2023-05-29T09:56:23;98683.00;;;19.88;42.52
66857;BME280;53766;50.280;19.160;2023-05-29T09:58:53;98682.78;;;19.90;42.58
66857;BME280;53766;50.280;19.160;2023-05-29T10:01:21;98688.97;;;19.90;42.58
66857;BME280;53766;50.280;19.160;2023-05-29T10:03:50;98690.41;;;19.93;42.64
66857;BME280;53766;50.280;19.160;2023-05-29T10:06:18;98688.34;;;19.95;42.41
66857;BME280;53766;50.280;19.160;2023-05-29T10:08:50;98691.84;;;19.96;42.36
66857;BME280;53766;50.280;19.160;2023-05-29T10:11:21;98690.59;;;19.98;42.37
66857;BME280;53766;50.280;19.160;2023-05-29T10:13:54;98691.41;;;19.99;42.35
66857;BME280;53766;50.280;19.160;2023-05-29T10:16:24;98687.72;;;20.00;42.33
66857;BME280;53766;50.280;19.160;2023-05-29T10:18:56;98684.84;;;20.01;42.48
66857;BME280;53766;50.280;19.160;2023-05-29T10:21:26;98691.81;;;20.02;42.41
66857;BME280;53766;50.280;19.160;2023-05-29T10:23:56;98689.75;;;20.04;42.23
66857;BME280;53766;50.280;19.160;2023-05-29T10:26:25;98683.59;;;20.04;42.40
66857;BME280;53766;50.280;19.160;2023-05-29T10:29:31;98685.03;;;20.06;42.20
66857;BME280;53766;50.280;19.160;2023-05-29T10:37:43;98684.41;;;20.11;42.22
66857;BME280;53766;50.280;19.160;2023-05-29T10:40:13;98686.63;;;20.14;42.25
66857;BME280;53766;50.280;19.160;2023-05-29T10:42:48;98671.44;;;20.14;42.11
66857;BME280;53766;50.280;19.160;2023-05-29T10:50:40;98661.97;;;20.19;42.01
66857;BME280;53766;50.280;19.160;2023-05-29T10:53:15;98665.47;;;20.19;42.17
66857;BME280;53766;50.280;19.160;2023-05-29T10:55:44;98669.56;;;20.22;41.99
66857;BME280;53766;50.280;19.160;2023-05-29T10:58:14;98660.50;;;20.23;42.11
66857;BME280;53766;50.280;19.160;2023-05-29T11:00:42;98664.81;;;20.24;42.02
66857;BME280;53766;50.280;19.160;2023-05-29T11:03:10;98670.78;;;20.26;42.07
66857;BME280;53766;50.280;19.160;2023-05-29T11:08:47;98665.84;;;20.23;42.07
66857;BME280;53766;50.280;19.160;2023-05-29T11:11:16;98667.91;;;20.21;42.19
66857;BME280;53766;50.280;19.160;2023-05-29T11:13:57;98661.97;;;20.19;42.33
66857;BME280;53766;50.280;19.160;2023-05-29T11:19:05;98668.34;;;20.18;42.31
66857;BME280;53766;50.280;19.160;2023-05-29T11:24:24;98667.09;;;20.20;42.30
66857;BME280;53766;50.280;19.160;2023-05-29T11:26:54;98668.50;;;20.23;42.13
66857;BME280;53766;50.280;19.160;2023-05-29T11:29:23;98663.78;;;20.25;42.11
66857;BME280;53766;50.280;19.160;2023-05-29T11:32:04;98656.81;;;20.24;41.98
66857;BME280;53766;50.280;19.160;2023-05-29T11:34:33;98667.06;;;20.27;42.11
66857;BME280;53766;50.280;19.160;2023-05-29T11:37:01;98666.88;;;20.28;41.92
66857;BME280;53766;50.280;19.160;2023-05-29T11:39:29;98660.47;;;20.29;41.89
66857;BME280;53766;50.280;19.160;2023-05-29T11:42:00;98661.31;;;20.30;42.02
66857;BME280;53766;50.280;19.160;2023-05-29T11:44:27;98652.25;;;20.31;41.86
66857;BME280;53766;50.280;19.160;2023-05-29T11:47:02;98646.69;;;20.32;41.82
66857;BME280;53766;50.280;19.160;2023-05-29T11:49:31;98650.19;;;20.33;41.96
66857;BME280;53766;50.280;19.160;2023-05-29T11:52:09;98653.47;;;20.35;41.82
66857;BME280;53766;50.280;19.160;2023-05-29T11:54:44;98651.59;;;20.35;41.94
66857;BME280;53766;50.280;19.160;2023-05-29T11:57:20;98648.72;;;20.37;41.93
66857;BME280;53766;50.280;19.160;2023-05-29T11:59:49;98643.38;;;20.37;42.02
66857;BME280;53766;50.280;19.160;2023-05-29T12:02:19;98658.38;;;20.38;41.71
66857;BME280;53766;50.280;19.160;2023-05-29T12:05:00;98640.28;;;20.40;41.72
66857;BME280;53766;50.280;19.160;2023-05-29T12:07:28;98633.28;;;20.39;41.86
66857;BME280;53766;50.280;19.160;2023-05-29T12:09:55;98641.31;;;20.39;41.99
66857;BME280;53766;50.280;19.160;2023-05-29T12:12:24;98632.69;;;20.37;41.96
66857;BME280;53766;50.280;19.160;2023-05-29T12:14:54;98635.78;;;20.34;41.94
66857;BME280;53766;50.280;19.160;2023-05-29T12:17:22;98633.31;;;20.32;42.09
66857;BME280;53766;50.280;19.160;2023-05-29T12:19:50;98631.47;;;20.33;42.16
66857;BME280;53766;50.280;19.160;2023-05-29T12:22:17;98632.06;;;20.35;41.91
66857;BME280;53766;50.280;19.160;2023-05-29T12:24:44;98635.34;;;20.37;42.12
66857;BME280;53766;50.280;19.160;2023-05-29T12:27:12;98625.06;;;20.41;41.86
66857;BME280;53766;50.280;19.160;2023-05-29T12:29:40;98634.72;;;20.42;41.77
66857;BME280;53766;50.280;19.160;2023-05-29T12:32:09;98624.44;;;20.39;41.82
66857;BME280;53766;50.280;19.160;2023-05-29T12:34:38;98621.34;;;20.42;41.84
66857;BME280;53766;50.280;19.160;2023-05-29T12:37:08;98612.72;;;20.40;41.75
66857;BME280;53766;50.280;19.160;2023-05-29T12:39:40;98614.97;;;20.43;41.69
66857;BME280;53766;50.280;19.160;2023-05-29T12:42:07;98613.13;;;20.43;41.80
66857;BME280;53766;50.280;19.160;2023-05-29T12:44:37;98605.69;;;20.45;41.73
66857;BME280;53766;50.280;19.160;2023-05-29T12:47:05;98603.03;;;20.45;41.65
66857;BME280;53766;50.280;19.160;2023-05-29T12:49:35;98603.63;;;20.47;41.57
66857;BME280;53766;50.280;19.160;2023-05-29T12:52:06;98604.44;;;20.48;41.61
66857;BME280;53766;50.280;19.160;2023-05-29T12:54:39;98605.25;;;20.48;41.70
66857;BME280;53766;50.280;19.160;2023-05-29T12:57:06;98605.88;;;20.50;41.56
66857;BME280;53766;50.280;19.160;2023-05-29T12:59:34;98603.19;;;20.50;41.59
66857;BME280;53766;50.280;19.160;2023-05-29T13:02:01;98593.31;;;20.51;41.57
66857;BME280;53766;50.280;19.160;2023-05-29T13:04:29;98598.44;;;20.52;41.55
66857;BME280;53766;50.280;19.160;2023-05-29T13:06:57;98598.25;;;20.54;41.66
66857;BME280;53766;50.280;19.160;2023-05-29T13:09:24;98592.09;;;20.53;41.66
66857;BME280;53766;50.280;19.160;2023-05-29T13:11:51;98593.72;;;20.54;41.50
66857;BME280;53766;50.280;19.160;2023-05-29T13:14:20;98589.16;;;20.55;41.39
66857;BME280;53766;50.280;19.160;2023-05-29T13:16:47;98584.63;;;20.55;41.38
66857;BME280;53766;50.280;19.160;2023-05-29T13:19:15;98585.47;;;20.56;41.41
66857;BME280;53766;50.280;19.160;2023-05-29T13:21:42;98588.97;;;20.57;41.41
66857;BME280;53766;50.280;19.160;2023-05-29T13:24:15;98588.78;;;20.58;41.38
66857;BME280;53766;50.280;19.160;2023-05-29T13:26:43;98584.25;;;20.59;41.25